Time;durP1;ratioP1;P1;durP2;ratioP2;P2;SDS_P1;SDS_P2;PMS_P1;PMS_P2;Temp;Humidity;BMP_temperature;BMP_pressure;BME280_temperature;BME280_humidity;BME280_pressure;Samples;Min_cycle;Max_cycle;Signal;HPM_P1;HPM_P2
2022/09/05 00:00:07;;;;;;;;;;;;;;;17.17;66.67;97335.03;30001;982;1857;-61
2022/09/05 00:00:39;;;;;;;;;;;;;;;17.17;66.81;97347.94;30001;982;1871;-60
2022/09/05 00:01:18;;;;;;;;;;;;;;;17.16;66.91;97338.09;30001;982;1871;-61
2022/09/05 00:02:09;;;;;;;;;;;;;;;17.18;66.57;97341.31;30001;982;1884;-60
2022/09/05 00:02:54;;;;;;;;;;;;;;;17.19;66.36;97337.44;30001;983;1756;-61
2022/09/05 00:03:43;;;;;;;;;;;;;;;17.18;66.57;97342.13;30001;983;1874;-61
2022/09/05 00:04:34;;;;;;;;;;;;;;;17.15;66.64;97340.03;30001;983;1879;-61
2022/09/05 00:05:19;;;;;;;;;;;;;;;17.10;66.61;97334.72;30001;983;1880;-61
2022/09/05 00:06:09;;;;;;;;;;;;;;;17.06;66.69;97339.22;30001;983;1879;-63
2022/09/05 00:06:43;;;;;;;;;;;;;;;17.03;66.94;97339.88;30001;983;1879;-62
2022/09/05 00:07:18;;;;;;;;;;;;;;;17.02;66.77;97338.25;30001;982;1866;-61
2022/09/05 00:08:09;;;;;;;;;;;;;;;17.01;67.22;97339.38;30001;982;1862;-63
2022/09/05 00:09:03;;;;;;;;;;;;;;;16.99;66.85;97338.91;30001;986;1880;-63
2022/09/05 00:09:54;;;;;;;;;;;;;;;16.97;67.42;97341.19;30001;983;1883;-62
2022/09/05 00:10:47;;;;;;;;;;;;;;;16.94;67.13;97336.34;30001;983;1870;-63
2022/09/05 00:11:27;;;;;;;;;;;;;;;16.93;67.47;97340.22;30001;983;1866;-62
2022/09/05 00:11:59;;;;;;;;;;;;;;;16.93;67.54;97341.03;30001;983;1870;-61
2022/09/05 00:12:31;;;;;;;;;;;;;;;16.95;67.45;97337.97;30001;983;1883;-62
2022/09/05 00:13:04;;;;;;;;;;;;;;;16.94;67.59;97336.34;30001;983;1879;-60
2022/09/05 00:13:38;;;;;;;;;;;;;;;16.95;67.47;97332.47;30001;983;1883;-62
2022/09/05 00:14:44;;;;;;;;;;;;;;;16.94;67.31;97330.88;30001;983;1879;-61
2022/09/05 00:15:31;;;;;;;;;;;;;;;16.96;67.59;97334.91;30001;982;1866;-60
2022/09/05 00:16:25;;;;;;;;;;;;;;;16.97;67.60;97335.72;30001;982;1871;-61
2022/09/05 00:17:07;;;;;;;;;;;;;;;16.98;67.34;97332.59;30001;982;1879;-61
2022/09/05 00:18:01;;;;;;;;;;;;;;;16.96;67.14;97334.09;30001;983;1865;-61
2022/09/05 00:18:57;;;;;;;;;;;;;;;16.92;67.47;97335.88;30001;983;1870;-62
2022/09/05 00:19:47;;;;;;;;;;;;;;;16.91;67.46;97331.50;30001;983;1874;-61
2022/09/05 00:20:26;;;;;;;;;;;;;;;16.91;67.58;97337.00;30001;983;1883;-61
2022/09/05 00:21:02;;;;;;;;;;;;;;;16.90;67.60;97329.91;30001;983;1879;-62
2022/09/05 00:21:55;;;;;;;;;;;;;;;16.88;67.62;97332.16;30001;982;1884;-62
2022/09/05 00:22:46;;;;;;;;;;;;;;;16.86;67.62;97329.72;30001;982;1879;-62
2022/09/05 00:23:24;;;;;;;;;;;;;;;16.85;68.03;97333.59;30001;982;1866;-62
2022/09/05 00:24:04;;;;;;;;;;;;;;;16.84;67.86;97326.50;30001;982;1871;-62
2022/09/05 00:24:56;;;;;;;;;;;;;;;16.85;67.81;97327.31;30001;982;1884;-62
2022/09/05 00:25:46;;;;;;;;;;;;;;;16.86;67.83;97323.44;30001;983;1879;-62
2022/09/05 00:26:22;;;;;;;;;;;;;;;16.84;67.93;97325.69;30001;983;1874;-64
2022/09/05 00:27:08;;;;;;;;;;;;;;;16.82;67.90;97323.28;30001;983;1879;-61
2022/09/05 00:28:08;;;;;;;;;;;;;;;16.80;68.22;97325.53;30001;983;1883;-63
2022/09/05 00:28:49;;;;;;;;;;;;;;;16.77;68.14;97326.19;30001;983;1862;-63
2022/09/05 00:29:32;;;;;;;;;;;;;;;16.75;68.28;97323.75;30001;982;1862;-63
2022/09/05 00:30:13;;;;;;;;;;;;;;;16.74;68.15;97326.81;30001;982;1879;-63
2022/09/05 00:31:03;;;;;;;;;;;;;;;16.72;68.18;97318.91;30001;982;1884;-63
2022/09/05 00:31:41;;;;;;;;;;;;;;;16.71;68.30;97324.72;30001;982;1871;-62
2022/09/05 00:32:38;;;;;;;;;;;;;;;16.72;68.67;97329.06;30001;983;1883;-63
2022/09/05 00:33:24;;;;;;;;;;;;;;;16.71;68.60;97331.00;30001;983;1874;-63
2022/09/05 00:34:02;;;;;;;;;;;;;;;16.70;68.81;97332.13;30001;983;1883;-63
2022/09/05 00:34:53;;;;;;;;;;;;;;;16.70;68.77;97326.66;30001;983;1866;-62
2022/09/05 00:35:52;;;;;;;;;;;;;;;16.69;68.73;97336.00;30001;983;1870;-60
2022/09/05 00:36:41;;;;;;;;;;;;;;;16.68;68.83;97333.59;30001;982;1879;-63
2022/09/05 00:37:24;;;;;;;;;;;;;;;16.68;68.92;97328.91;30001;982;1875;-63
2022/09/05 00:37:57;;;;;;;;;;;;;;;16.67;69.12;97327.28;30001;982;1866;-63
2022/09/05 00:38:28;;;;;;;;;;;;;;;16.67;68.91;97327.28;30001;982;1875;-63
2022/09/05 00:39:01;;;;;;;;;;;;;;;16.67;69.10;97324.56;30001;983;1878;-63
2022/09/05 00:39:35;;;;;;;;;;;;;;;16.65;68.74;97318.59;30001;983;1883;-62
2022/09/05 00:40:29;;;;;;;;;;;;;;;16.65;69.15;97318.59;30001;983;1879;-60
2022/09/05 00:41:08;;;;;;;;;;;;;;;16.64;68.92;97311.50;30001;983;1879;-62
2022/09/05 00:41:41;;;;;;;;;;;;;;;16.65;68.87;97307.62;30001;983;1879;-62
2022/09/05 00:42:16;;;;;;;;;;;;;;;16.67;68.66;97310.06;30001;983;1883;-61
2022/09/05 00:42:50;;;;;;;;;;;;;;;16.68;68.76;97312.47;30001;983;1879;-61
2022/09/05 00:43:41;;;;;;;;;;;;;;;16.70;68.79;97304.72;30001;983;1870;-61
2022/09/05 00:44:13;;;;;;;;;;;;;;;16.71;68.45;97311.03;30001;984;1870;-62
2022/09/05 00:45:03;;;;;;;;;;;;;;;16.70;68.42;97310.22;30001;982;1870;-62
2022/09/05 00:45:53;;;;;;;;;;;;;;;16.70;68.38;97314.88;30001;982;1853;-64
2022/09/05 00:46:27;;;;;;;;;;;;;;;16.69;68.75;97322.31;30001;982;1884;-63
2022/09/05 00:47:22;;;;;;;;;;;;;;;16.69;68.81;97325.03;30001;983;1878;-63
2022/09/05 00:48:12;;;;;;;;;;;;;;;16.68;68.72;97323.44;30001;983;1883;-63
2022/09/05 00:48:49;;;;;;;;;;;;;;;16.69;69.22;97324.22;30001;983;1879;-64
2022/09/05 00:49:23;;;;;;;;;;;;;;;16.69;69.05;97330.53;30001;983;1884;-63
2022/09/05 00:49:58;;;;;;;;;;;;;;;16.69;69.02;97330.53;30001;983;1866;-63
2022/09/05 00:50:35;;;;;;;;;;;;;;;16.68;69.34;97328.91;30001;983;1875;-63
2022/09/05 00:51:22;;;;;;;;;;;;;;;16.67;69.15;97321.00;30001;983;1789;-63
2022/09/05 00:51:59;;;;;;;;;;;;;;;16.67;69.30;97326.50;30001;982;1884;-62
2022/09/05 00:52:37;;;;;;;;;;;;;;;16.66;69.16;97328.41;30001;982;1880;-63
2022/09/05 00:53:17;;;;;;;;;;;;;;;16.64;69.60;97322.47;30001;982;1884;-63
2022/09/05 00:54:02;;;;;;;;;;;;;;;16.63;69.26;97323.56;30001;982;1879;-63
2022/09/05 00:55:01;;;;;;;;;;;;;;;16.62;69.42;97324.72;30001;986;1870;-63
2022/09/05 00:55:40;;;;;;;;;;;;;;;16.61;69.48;97323.09;30001;983;1866;-62
2022/09/05 00:56:29;;;;;;;;;;;;;;;16.60;69.69;97332.44;30001;983;1870;-63
2022/09/05 00:57:22;;;;;;;;;;;;;;;16.59;69.52;97330.81;30001;983;1861;-63
2022/09/05 00:58:13;;;;;;;;;;;;;;;16.57;69.63;97327.59;30001;983;1879;-63
2022/09/05 00:58:57;;;;;;;;;;;;;;;16.57;69.90;97330.34;30001;983;1861;-63
2022/09/05 00:59:54;;;;;;;;;;;;;;;16.57;70.03;97326.78;30001;982;1875;-62
2022/09/05 01:00:43;;;;;;;;;;;;;;;16.56;69.79;97336.94;30001;982;1875;-62
2022/09/05 01:01:40;;;;;;;;;;;;;;;16.56;69.63;97333.41;30001;982;1884;-62
2022/09/05 01:02:16;;;;;;;;;;;;;;;16.56;69.68;97338.88;30001;983;1861;-63
2022/09/05 01:02:57;;;;;;;;;;;;;;;16.55;69.68;97338.06;30001;983;1874;-63
2022/09/05 01:03:47;;;;;;;;;;;;;;;16.56;69.80;97341.63;30001;983;1879;-62
2022/09/05 01:04:34;;;;;;;;;;;;;;;16.55;70.02;97340.81;30001;983;1770;-63
2022/09/05 01:05:23;;;;;;;;;;;;;;;16.55;70.05;97334.53;30001;983;1870;-63
2022/09/05 01:06:19;;;;;;;;;;;;;;;16.53;70.05;97337.59;30001;983;1875;-63
2022/09/05 01:07:28;;;;;;;;;;;;;;;16.55;69.79;97340.00;30001;982;1875;-63
2022/09/05 01:08:17;;;;;;;;;;;;;;;16.55;70.02;97340.00;30001;982;1866;-62
2022/09/05 01:09:18;;;;;;;;;;;;;;;16.54;69.65;97344.69;30001;982;1862;-64
2022/09/05 01:10:10;;;;;;;;;;;;;;;16.55;69.65;97335.34;30001;983;1879;-63
2022/09/05 01:10:45;;;;;;;;;;;;;;;16.56;70.00;97336.94;30001;983;1861;-63
2022/09/05 01:11:27;;;;;;;;;;;;;;;16.55;69.84;97329.03;30001;983;1874;-63
2022/09/05 01:12:32;;;;;;;;;;;;;;;16.55;69.95;97335.34;30001;983;1879;-63
2022/09/05 01:13:23;;;;;;;;;;;;;;;16.55;69.96;97335.34;30001;983;1866;-63
2022/09/05 01:14:04;;;;;;;;;;;;;;;16.55;69.76;97335.34;30001;982;1866;-62
2022/09/05 01:14:58;;;;;;;;;;;;;;;16.55;69.68;97329.84;30001;982;1884;-61
2022/09/05 01:15:58;;;;;;;;;;;;;;;16.56;69.65;97334.19;30001;982;1875;-62
2022/09/05 01:17:07;;;;;;;;;;;;;;;16.56;69.77;97336.94;30001;982;1871;-63
2022/09/05 01:18:06;;;;;;;;;;;;;;;16.58;69.57;97331.94;30001;983;1866;-62
2022/09/05 01:19:09;;;;;;;;;;;;;;;16.57;69.49;97327.59;30001;983;1879;-64
2022/09/05 01:19:49;;;;;;;;;;;;;;;16.59;69.62;97336.31;30001;983;1875;-64
2022/09/05 01:20:58;;;;;;;;;;;;;;;16.59;69.71;97330.81;30001;983;1870;-60
2022/09/05 01:21:48;;;;;;;;;;;;;;;16.60;69.60;97332.44;30001;982;1866;-62
2022/09/05 01:22:34;;;;;;;;;;;;;;;16.60;69.24;97326.16;30001;982;1884;-61
2022/09/05 01:23:31;;;;;;;;;;;;;;;16.60;69.49;97326.97;30001;982;1879;-62
2022/09/05 01:24:30;;;;;;;;;;;;;;;16.59;69.59;97321.81;30001;982;1879;-63
2022/09/05 01:25:27;;;;;;;;;;;;;;;16.57;69.59;97316.63;30001;983;1879;-62
2022/09/05 01:26:30;;;;;;;;;;;;;;;16.57;69.66;97313.91;30001;983;1870;-62
2022/09/05 01:27:19;;;;;;;;;;;;;;;16.57;69.62;97313.91;30001;973;1884;-63
2022/09/05 01:27:53;;;;;;;;;;;;;;;16.57;69.40;97305.69;30001;983;1875;-62
2022/09/05 01:28:30;;;;;;;;;;;;;;;16.58;69.55;97312.78;30001;982;1879;-63
2022/09/05 01:29:07;;;;;;;;;;;;;;;16.58;69.56;97304.56;30001;982;1870;-62
2022/09/05 01:29:55;;;;;;;;;;;;;;;16.57;69.51;97313.91;30001;982;1775;-62
2022/09/05 01:30:34;;;;;;;;;;;;;;;16.56;69.81;97304.06;30001;971;1890;-62
2022/09/05 01:31:25;;;;;;;;;;;;;;;16.55;69.41;97313.41;30001;982;1858;-62
2022/09/05 01:32:02;;;;;;;;;;;;;;;16.55;69.47;97313.41;30001;983;1865;-62
2022/09/05 01:32:39;;;;;;;;;;;;;;;16.54;69.82;97317.28;30001;983;1870;-63
2022/09/05 01:33:21;;;;;;;;;;;;;;;16.52;69.62;97314.06;30001;983;1883;-62
2022/09/05 01:34:06;;;;;;;;;;;;;;;16.52;69.84;97316.78;30001;983;1879;-64
2022/09/05 01:35:03;;;;;;;;;;;;;;;16.51;69.54;97315.19;30001;983;1883;-63
2022/09/05 01:36:02;;;;;;;;;;;;;;;16.51;69.80;97317.91;30001;983;1875;-61
2022/09/05 01:37:02;;;;;;;;;;;;;;;16.51;69.74;97315.19;30001;982;1879;-62
2022/09/05 01:37:40;;;;;;;;;;;;;;;16.50;70.11;97310.81;30001;982;1857;-62
2022/09/05 01:38:45;;;;;;;;;;;;;;;16.51;69.88;97317.13;30001;982;1871;-62
2022/09/05 01:39:54;;;;;;;;;;;;;;;16.52;70.09;97305.84;30001;983;1870;-62
2022/09/05 01:40:48;;;;;;;;;;;;;;;16.52;69.71;97308.56;30001;983;1874;-60
2022/09/05 01:41:42;;;;;;;;;;;;;;;16.53;70.04;97301.97;30001;983;1870;-61
2022/09/05 01:42:28;;;;;;;;;;;;;;;16.55;69.61;97296.97;30001;983;1862;-62
2022/09/05 01:43:28;;;;;;;;;;;;;;;16.57;69.48;97294.72;30001;983;1853;-62
2022/09/05 01:44:34;;;;;;;;;;;;;;;16.57;69.41;97289.25;30001;982;1875;-63
2022/09/05 01:45:24;;;;;;;;;;;;;;;16.55;69.66;97296.97;30001;982;1871;-63
2022/09/05 01:46:18;;;;;;;;;;;;;;;16.52;69.69;97296.81;30001;982;1875;-64
2022/09/05 01:47:00;;;;;;;;;;;;;;;16.48;69.58;97304.88;30001;983;1870;-64
2022/09/05 01:47:47;;;;;;;;;;;;;;;16.46;69.89;97298.91;30001;983;1865;-63
2022/09/05 01:48:46;;;;;;;;;;;;;;;16.43;69.71;97296.78;30001;983;1852;-63
2022/09/05 01:49:37;;;;;;;;;;;;;;;16.41;69.82;97301.78;30001;983;1879;-62
2022/09/05 01:50:27;;;;;;;;;;;;;;;16.38;70.45;97307.91;30001;983;1870;-64
2022/09/05 01:51:08;;;;;;;;;;;;;;;16.36;70.33;97300.00;30001;983;1875;-62
2022/09/05 01:51:45;;;;;;;;;;;;;;;16.35;70.66;97303.06;30001;982;1875;-63
2022/09/05 01:52:32;;;;;;;;;;;;;;;16.35;70.52;97306.59;30001;982;1879;-63
2022/09/05 01:53:26;;;;;;;;;;;;;;;16.35;70.65;97303.06;30001;982;1862;-65
2022/09/05 01:54:06;;;;;;;;;;;;;;;16.34;70.87;97301.44;30001;983;1870;-64
2022/09/05 01:54:56;;;;;;;;;;;;;;;16.33;70.85;97305.31;30001;983;1874;-62
2022/09/05 01:55:38;;;;;;;;;;;;;;;16.32;70.67;97298.22;30001;983;1879;-63
2022/09/05 01:56:27;;;;;;;;;;;;;;;16.31;71.10;97302.91;30001;983;1874;-62
2022/09/05 01:57:21;;;;;;;;;;;;;;;16.29;70.95;97298.84;30001;983;1870;-64
2022/09/05 01:58:11;;;;;;;;;;;;;;;16.28;70.81;97302.75;30001;983;1857;-62
2022/09/05 01:58:53;;;;;;;;;;;;;;;16.27;71.05;97301.13;30001;982;1853;-63
2022/09/05 01:59:38;;;;;;;;;;;;;;;16.27;70.83;97301.13;30001;982;1875;-64
2022/09/05 02:00:12;;;;;;;;;;;;;;;16.26;70.92;97300.34;30001;982;1879;-62
2022/09/05 02:00:59;;;;;;;;;;;;;;;16.26;71.17;97299.53;30001;982;1875;-63
2022/09/05 02:01:38;;;;;;;;;;;;;;;16.27;70.95;97306.62;30001;983;1879;-63
2022/09/05 02:02:17;;;;;;;;;;;;;;;16.28;71.03;97302.75;30001;983;1875;-62
2022/09/05 02:03:12;;;;;;;;;;;;;;;16.29;70.79;97305.16;30001;983;1879;-63
2022/09/05 02:03:49;;;;;;;;;;;;;;;16.31;70.84;97302.09;30001;983;1861;-62
2022/09/05 02:04:34;;;;;;;;;;;;;;;16.31;70.72;97302.09;30001;983;1870;-63
2022/09/05 02:05:10;;;;;;;;;;;;;;;16.33;70.67;97302.56;30001;983;1875;-62
2022/09/05 02:06:03;;;;;;;;;;;;;;;16.33;70.55;97305.31;30001;983;1866;-60
2022/09/05 02:06:42;;;;;;;;;;;;;;;16.35;70.18;97301.13;30001;982;1862;-62
2022/09/05 02:07:29;;;;;;;;;;;;;;;16.36;70.29;97304.69;30001;982;1879;-62
2022/09/05 02:08:07;;;;;;;;;;;;;;;16.35;70.35;97305.81;30001;985;1875;-61
2022/09/05 02:08:58;;;;;;;;;;;;;;;16.35;70.17;97311.28;30001;983;1879;-62
2022/09/05 02:09:58;;;;;;;;;;;;;;;16.36;70.33;97312.88;30001;983;1870;-61
2022/09/05 02:10:55;;;;;;;;;;;;;;;16.35;70.12;97303.06;30001;983;1861;-62
2022/09/05 02:11:50;;;;;;;;;;;;;;;16.39;70.32;97315.00;30001;983;1861;-62
2022/09/05 02:12:30;;;;;;;;;;;;;;;16.40;69.88;97308.38;30001;983;1879;-61
2022/09/05 02:13:38;;;;;;;;;;;;;;;16.41;69.91;97301.78;30001;983;1862;-62
2022/09/05 02:14:19;;;;;;;;;;;;;;;16.41;69.76;97307.25;30001;982;1866;-62
2022/09/05 02:15:03;;;;;;;;;;;;;;;16.41;70.03;97312.75;30001;982;1875;-62
2022/09/05 02:15:39;;;;;;;;;;;;;;;16.38;70.26;97303.22;30001;982;1879;-62
2022/09/05 02:16:29;;;;;;;;;;;;;;;16.41;70.24;97302.59;30001;969;1901;-61
2022/09/05 02:17:13;;;;;;;;;;;;;;;16.43;70.26;97305.81;30001;983;1870;-61
2022/09/05 02:17:56;;;;;;;;;;;;;;;16.43;70.01;97305.81;30001;983;1875;-62
2022/09/05 02:18:44;;;;;;;;;;;;;;;16.45;70.02;97299.22;30001;974;1884;-62
2022/09/05 02:19:23;;;;;;;;;;;;;;;16.45;70.08;97308.25;30001;983;1853;-61
2022/09/05 02:20:00;;;;;;;;;;;;;;;16.43;69.86;97288.59;30001;983;1879;-61
2022/09/05 02:20:36;;;;;;;;;;;;;;;16.42;69.92;97304.22;30001;982;1875;-61
2022/09/05 02:21:12;;;;;;;;;;;;;;;16.42;69.81;97297.91;30001;982;1879;-62
2022/09/05 02:21:50;;;;;;;;;;;;;;;16.40;70.15;97292.75;30001;982;1875;-62
2022/09/05 02:22:36;;;;;;;;;;;;;;;16.39;69.93;97293.88;30001;982;1880;-62
2022/09/05 02:23:14;;;;;;;;;;;;;;;16.39;70.30;97298.56;30001;982;1875;-62
2022/09/05 02:23:53;;;;;;;;;;;;;;;16.37;70.10;97295.34;30001;983;1879;-61
2022/09/05 02:24:33;;;;;;;;;;;;;;;16.36;70.24;97293.72;30001;983;1861;-61
2022/09/05 02:25:12;;;;;;;;;;;;;;;16.35;70.04;97294.84;30001;983;1870;-61
2022/09/05 02:25:45;;;;;;;;;;;;;;;16.35;70.47;97294.84;30001;983;1874;-62
2022/09/05 02:26:25;;;;;;;;;;;;;;;16.34;70.15;97295.97;30001;983;1879;-62
2022/09/05 02:27:09;;;;;;;;;;;;;;;16.34;70.46;97295.97;30001;983;1875;-62
2022/09/05 02:27:49;;;;;;;;;;;;;;;16.32;70.39;97299.03;30001;983;1879;-61
2022/09/05 02:28:31;;;;;;;;;;;;;;;16.30;70.53;97297.72;30001;982;1875;-60
2022/09/05 02:29:15;;;;;;;;;;;;;;;16.28;70.33;97298.09;30001;982;1866;-63
2022/09/05 02:30:06;;;;;;;;;;;;;;;16.28;70.47;97297.28;30001;982;1853;-61
2022/09/05 02:30:41;;;;;;;;;;;;;;;16.28;70.60;97292.59;30001;982;1871;-61
2022/09/05 02:31:18;;;;;;;;;;;;;;;16.30;70.63;97295.00;30001;982;1875;-62
2022/09/05 02:31:55;;;;;;;;;;;;;;;16.30;70.53;97290.31;30001;983;1879;-62
2022/09/05 02:32:31;;;;;;;;;;;;;;;16.31;70.17;97291.12;30001;983;1875;-63
2022/09/05 02:33:16;;;;;;;;;;;;;;;16.29;70.39;97293.38;30001;983;1879;-63
2022/09/05 02:33:53;;;;;;;;;;;;;;;16.27;70.52;97290.19;30001;983;1874;-63
2022/09/05 02:34:29;;;;;;;;;;;;;;;16.25;70.30;97292.44;30001;983;1866;-62
2022/09/05 02:35:15;;;;;;;;;;;;;;;16.24;70.69;97296.28;30001;983;1866;-63
2022/09/05 02:35:54;;;;;;;;;;;;;;;16.23;70.48;97291.94;30001;982;1879;-62
2022/09/05 02:36:55;;;;;;;;;;;;;;;16.21;70.54;97289.53;30001;982;1875;-62
2022/09/05 02:37:55;;;;;;;;;;;;;;;16.20;70.64;97298.06;30001;982;1875;-62
2022/09/05 02:38:38;;;;;;;;;;;;;;;16.18;70.78;97289.34;30001;982;1858;-63
2022/09/05 02:39:27;;;;;;;;;;;;;;;16.17;70.91;97296.75;30001;983;1870;-63
2022/09/05 02:40:09;;;;;;;;;;;;;;;16.17;70.84;97298.69;30001;983;1866;-64
2022/09/05 02:41:02;;;;;;;;;;;;;;;16.16;71.05;97291.59;30001;983;1879;-63
2022/09/05 02:41:51;;;;;;;;;;;;;;;16.15;71.12;97298.22;30001;983;1875;-62
2022/09/05 02:42:26;;;;;;;;;;;;;;;16.14;71.10;97296.59;30001;983;1871;-62
2022/09/05 02:43:26;;;;;;;;;;;;;;;16.12;71.07;97296.91;30001;983;1875;-61
2022/09/05 02:44:04;;;;;;;;;;;;;;;16.12;71.10;97293.38;30001;982;1862;-62
2022/09/05 02:44:54;;;;;;;;;;;;;;;16.11;70.92;97294.50;30001;982;1866;-63
2022/09/05 02:45:47;;;;;;;;;;;;;;;16.10;71.29;97296.41;30001;982;1871;-62
2022/09/05 02:46:45;;;;;;;;;;;;;;;16.08;71.05;97294.00;30001;982;1875;-63
2022/09/05 02:47:22;;;;;;;;;;;;;;;16.07;71.02;97288.84;30001;983;1874;-63
2022/09/05 02:48:18;;;;;;;;;;;;;;;16.08;71.29;97299.47;30001;983;1875;-62
2022/09/05 02:49:18;;;;;;;;;;;;;;;16.09;71.03;97301.09;30001;983;1862;-62
2022/09/05 02:50:15;;;;;;;;;;;;;;;16.09;71.23;97287.41;30001;983;1862;-62
2022/09/05 02:51:14;;;;;;;;;;;;;;;16.09;71.25;97290.13;30001;982;1862;-62
2022/09/05 02:52:06;;;;;;;;;;;;;;;16.08;71.23;97293.19;30001;982;1862;-62
2022/09/05 02:52:40;;;;;;;;;;;;;;;16.07;71.02;97294.31;30001;982;1875;-61
2022/09/05 02:53:14;;;;;;;;;;;;;;;16.07;71.38;97300.59;30001;983;1874;-61
2022/09/05 02:53:51;;;;;;;;;;;;;;;16.07;71.15;97294.31;30001;983;1878;-61
2022/09/05 02:54:27;;;;;;;;;;;;;;;16.05;71.09;97294.63;30001;983;1874;-62
2022/09/05 02:55:00;;;;;;;;;;;;;;;16.06;71.46;97293.50;30001;983;1866;-61
2022/09/05 02:55:53;;;;;;;;;;;;;;;16.05;71.53;97299.31;30001;983;1866;-63
2022/09/05 02:56:44;;;;;;;;;;;;;;;16.06;71.28;97290.78;30001;983;1879;-60
2022/09/05 02:57:35;;;;;;;;;;;;;;;16.06;71.79;97293.50;30001;983;1875;-62
2022/09/05 02:58:24;;;;;;;;;;;;;;;16.04;71.34;97292.22;30001;983;1875;-61
2022/09/05 02:59:23;;;;;;;;;;;;;;;16.03;71.73;97299.62;30001;982;1875;-61
2022/09/05 03:00:20;;;;;;;;;;;;;;;16.04;71.77;97293.03;30001;982;1862;-63
2022/09/05 03:01:14;;;;;;;;;;;;;;;16.02;71.68;97286.25;30001;983;1848;-60
2022/09/05 03:02:08;;;;;;;;;;;;;;;16.01;71.66;97293.66;30001;983;1874;-63
2022/09/05 03:03:01;;;;;;;;;;;;;;;16.00;71.92;97292.03;30001;983;1861;-62
2022/09/05 03:03:36;;;;;;;;;;;;;;;15.99;71.85;97284.16;30001;983;1866;-61
2022/09/05 03:04:42;;;;;;;;;;;;;;;15.98;72.22;97288.81;30001;983;1875;-60
2022/09/05 03:05:19;;;;;;;;;;;;;;;15.97;71.86;97289.94;30001;983;1875;-62
2022/09/05 03:06:19;;;;;;;;;;;;;;;15.97;71.93;97292.66;30001;982;1862;-61
2022/09/05 03:07:08;;;;;;;;;;;;;;;15.98;71.94;97288.81;30001;982;1866;-62
2022/09/05 03:07:59;;;;;;;;;;;;;;;15.96;72.19;97290.25;30001;982;1866;-61
2022/09/05 03:08:40;;;;;;;;;;;;;;;15.95;72.34;97289.44;30001;983;1874;-61
2022/09/05 03:09:28;;;;;;;;;;;;;;;15.94;72.25;97293.31;30001;983;1875;-63
2022/09/05 03:10:14;;;;;;;;;;;;;;;15.94;72.25;97285.09;30001;983;1866;-64
2022/09/05 03:11:11;;;;;;;;;;;;;;;15.93;72.47;97288.97;30001;983;1853;-63
2022/09/05 03:12:17;;;;;;;;;;;;;;;15.91;72.81;97284.94;30001;983;1875;-63
2022/09/05 03:13:06;;;;;;;;;;;;;;;15.85;72.53;97281.56;30001;983;1875;-62
2022/09/05 03:14:02;;;;;;;;;;;;;;;15.84;72.59;97282.66;30001;982;1879;-63
2022/09/05 03:14:50;;;;;;;;;;;;;;;15.86;72.86;97290.56;30001;982;1875;-62
2022/09/05 03:15:39;;;;;;;;;;;;;;;15.88;72.71;97291.88;30001;982;1871;-61
2022/09/05 03:16:29;;;;;;;;;;;;;;;15.89;72.52;97284.47;30001;983;1857;-61
2022/09/05 03:17:28;;;;;;;;;;;;;;;15.91;72.42;97287.69;30001;983;1870;-62
2022/09/05 03:18:28;;;;;;;;;;;;;;;15.93;72.79;97286.25;30001;983;1870;-62
2022/09/05 03:19:30;;;;;;;;;;;;;;;15.93;72.53;97285.44;30001;983;1875;-62
2022/09/05 03:20:14;;;;;;;;;;;;;;;15.97;72.69;97280.91;30001;983;1871;-61
2022/09/05 03:21:02;;;;;;;;;;;;;;;15.95;72.39;97278.50;30001;983;1879;-59
2022/09/05 03:21:59;;;;;;;;;;;;;;;15.94;72.29;97278.84;30001;982;1862;-59
2022/09/05 03:22:55;;;;;;;;;;;;;;;15.91;72.43;97280.28;30001;982;1866;-61
2022/09/05 03:23:40;;;;;;;;;;;;;;;15.90;72.77;97269.66;30001;983;1874;-63
2022/09/05 03:24:23;;;;;;;;;;;;;;;15.87;72.60;97278.50;30001;983;1879;-60
2022/09/05 03:25:17;;;;;;;;;;;;;;;15.83;72.85;97278.31;30001;983;1875;-61
2022/09/05 03:26:06;;;;;;;;;;;;;;;15.80;72.95;97276.22;30001;983;1862;-63
2022/09/05 03:26:55;;;;;;;;;;;;;;;15.77;72.97;97281.50;30001;983;1857;-62
2022/09/05 03:27:48;;;;;;;;;;;;;;;15.73;73.52;97278.59;30001;983;1875;-62
2022/09/05 03:28:39;;;;;;;;;;;;;;;15.72;73.74;97285.19;30001;982;1871;-61
2022/09/05 03:29:30;;;;;;;;;;;;;;;15.70;73.39;97282.78;30001;982;1862;-62
2022/09/05 03:30:03;;;;;;;;;;;;;;;15.68;73.88;97284.22;30001;982;1862;-63
2022/09/05 03:30:47;;;;;;;;;;;;;;;15.67;73.60;97282.59;30001;982;1880;-61
2022/09/05 03:31:37;;;;;;;;;;;;;;;15.67;73.51;97277.12;30001;983;1874;-62
2022/09/05 03:32:40;;;;;;;;;;;;;;;15.65;73.61;97279.37;30001;983;1879;-63
2022/09/05 03:33:42;;;;;;;;;;;;;;;15.63;73.96;97285.16;30001;983;1870;-63
2022/09/05 03:34:43;;;;;;;;;;;;;;;15.63;73.87;97281.59;30001;983;1862;-61
2022/09/05 03:35:32;;;;;;;;;;;;;;;15.62;74.02;97280.00;30001;975;1880;-63
2022/09/05 03:36:23;;;;;;;;;;;;;;;15.62;73.78;97282.72;30001;982;1871;-63
2022/09/05 03:37:12;;;;;;;;;;;;;;;15.64;74.15;97284.03;30001;982;1871;-62
2022/09/05 03:38:03;;;;;;;;;;;;;;;15.63;73.72;97284.34;30001;982;1871;-63
2022/09/05 03:38:52;;;;;;;;;;;;;;;15.63;74.05;97276.12;30001;983;1870;-63
2022/09/05 03:39:41;;;;;;;;;;;;;;;15.64;74.27;97283.22;30001;983;1857;-63
2022/09/05 03:40:35;;;;;;;;;;;;;;;15.64;74.14;97280.50;30001;983;1862;-61
2022/09/05 03:41:17;;;;;;;;;;;;;;;15.65;74.07;97284.84;30001;983;1866;-62
2022/09/05 03:42:06;;;;;;;;;;;;;;;15.64;74.06;97278.56;30001;983;1760;-64
2022/09/05 03:42:53;;;;;;;;;;;;;;;15.65;73.81;97284.84;30001;982;1871;-63
2022/09/05 03:43:42;;;;;;;;;;;;;;;15.65;74.18;97285.66;30001;982;1862;-63
2022/09/05 03:44:37;;;;;;;;;;;;;;;15.65;74.14;97280.19;30001;982;1862;-62
2022/09/05 03:45:45;;;;;;;;;;;;;;;15.65;74.25;97282.09;30001;982;1858;-62
2022/09/05 03:46:36;;;;;;;;;;;;;;;15.64;74.00;97284.03;30001;986;1866;-62
2022/09/05 03:47:20;;;;;;;;;;;;;;;15.64;74.24;97285.97;30001;983;1870;-62
2022/09/05 03:48:26;;;;;;;;;;;;;;;15.64;73.86;97283.22;30001;983;1879;-61
2022/09/05 03:49:22;;;;;;;;;;;;;;;15.65;73.73;97279.37;30001;983;1857;-63
2022/09/05 03:50:05;;;;;;;;;;;;;;;15.65;74.17;97280.19;30001;983;1866;-64
2022/09/05 03:50:58;;;;;;;;;;;;;;;15.66;74.30;97286.44;30001;982;1875;-61
2022/09/05 03:51:42;;;;;;;;;;;;;;;15.65;74.01;97291.12;30001;982;1866;-62
2022/09/05 03:52:39;;;;;;;;;;;;;;;15.65;74.24;97284.84;30001;982;1867;-62
2022/09/05 03:53:29;;;;;;;;;;;;;;;15.66;73.83;97283.72;30001;982;1875;-62
2022/09/05 03:54:20;;;;;;;;;;;;;;;15.67;73.99;97283.41;30001;983;1874;-62
2022/09/05 03:55:11;;;;;;;;;;;;;;;15.68;74.12;97286.94;30001;983;1870;-62
2022/09/05 03:56:02;;;;;;;;;;;;;;;15.68;74.03;97289.69;30001;983;1790;-62
2022/09/05 03:56:54;;;;;;;;;;;;;;;15.68;73.99;97289.69;30001;983;1857;-61
2022/09/05 03:57:37;;;;;;;;;;;;;;;15.67;73.72;97283.41;30001;983;1857;-62
2022/09/05 03:58:24;;;;;;;;;;;;;;;15.66;73.83;97291.94;30001;982;1875;-62
2022/09/05 03:59:08;;;;;;;;;;;;;;;15.65;74.18;97290.31;30001;982;1880;-64
2022/09/05 04:00:01;;;;;;;;;;;;;;;15.63;74.05;97292.56;30001;982;1875;-62
2022/09/05 04:00:33;;;;;;;;;;;;;;;15.62;74.54;97297.22;30001;983;1879;-63
2022/09/05 04:01:11;;;;;;;;;;;;;;;15.63;73.97;97287.09;30001;983;1875;-63
2022/09/05 04:01:47;;;;;;;;;;;;;;;15.61;74.43;97295.59;30001;983;1879;-62
2022/09/05 04:02:22;;;;;;;;;;;;;;;15.62;74.50;97290.94;30001;983;1861;-63
2022/09/05 04:03:21;;;;;;;;;;;;;;;15.61;74.57;97289.31;30001;983;1870;-61
2022/09/05 04:03:55;;;;;;;;;;;;;;;15.63;74.15;97284.34;30001;983;1870;-61
2022/09/05 04:04:38;;;;;;;;;;;;;;;15.64;74.44;97288.69;30001;983;1879;-61
2022/09/05 04:05:13;;;;;;;;;;;;;;;15.65;74.09;97290.31;30001;983;1875;-62
2022/09/05 04:05:47;;;;;;;;;;;;;;;15.66;74.06;97287.25;30001;982;1879;-62
2022/09/05 04:06:37;;;;;;;;;;;;;;;15.67;74.36;97288.06;30001;982;1875;-61
2022/09/05 04:07:18;;;;;;;;;;;;;;;15.66;74.13;97283.72;30001;982;1862;-63
2022/09/05 04:07:58;;;;;;;;;;;;;;;15.63;74.34;97276.12;30001;983;1866;-61
2022/09/05 04:08:52;;;;;;;;;;;;;;;15.63;74.16;97278.88;30001;983;1879;-64
2022/09/05 04:09:44;;;;;;;;;;;;;;;15.62;74.50;97280.81;30001;983;1870;-62
2022/09/05 04:10:44;;;;;;;;;;;;;;;15.61;74.57;97283.84;30001;983;1879;-63
2022/09/05 04:11:20;;;;;;;;;;;;;;;15.57;74.56;97280.97;30001;983;1870;-63
2022/09/05 04:11:57;;;;;;;;;;;;;;;15.56;74.58;97281.25;30001;983;1879;-61